aviador You're here:

OMAA Decoded Metar

ABU DHABI in UNITED ARAB EMIRATES
Report Time2018-05-26 17:00:00
UTC Time2018-05-26 17:22:30
Flight Rules vfr VFR
Wind010° at 08 kt
W.Decomp.*RWY 31: 4.1 kt HW 6.9 kt RCW
W.Rank010° ranks 29
Current wind is above 010° avg. (6.1)
Visibility9999 m
Phenomena:N/A
Clouds:N/A
Expected CloudBase > 6,000 ft AGL from Temp-Dew spread
CeilingNone
Temp34°C (ISA +19)
Dew Point19°C (41% RH)
Heat Index35.7°C
QNH1005 hPa
Density Alt2,828 ft
Elevation89 ft
Report Wrong Elevation
Raw Report
METAR OMAA 261700Z 01008KT CAVOK 34/19 Q1005 NOSIG=

Extra information for OMAA:More info

Metar Taf Metar & Taf Last 4 Metars F.Rules Stats Wind Profile Meteogram Temp Stats Airport Information Weather charts Add Link Nearby VenuesMetar ALERT Operation Metar Decoded Social comments